sensor_id;sensor_type;location;lat;lon;timestamp;pressure;altitude;pressure_sealevel;temperature;humidity
31771;BME280;18343;50.152;8.182;2024-03-29T00:02:23;95560.56;;;7.12;100.00
31771;BME280;18343;50.152;8.182;2024-03-29T00:05:08;95547.81;;;7.14;100.00
31771;BME280;18343;50.152;8.182;2024-03-29T00:07:52;95535.41;;;7.20;100.00
31771;BME280;18343;50.152;8.182;2024-03-29T00:10:37;95541.81;;;7.19;100.00
31771;BME280;18343;50.152;8.182;2024-03-29T00:13:22;95544.78;;;7.10;100.00
31771;BME280;18343;50.152;8.182;2024-03-29T00:16:08;95528.47;;;7.12;100.00
31771;BME280;18343;50.152;8.182;2024-03-29T00:18:53;95532.31;;;6.98;100.00
31771;BME280;18343;50.152;8.182;2024-03-29T00:21:37;95539.56;;;7.16;100.00
31771;BME280;18343;50.152;8.182;2024-03-29T00:24:22;95533.69;;;7.32;100.00
31771;BME280;18343;50.152;8.182;2024-03-29T00:27:06;95536.06;;;7.40;100.00
31771;BME280;18343;50.152;8.182;2024-03-29T00:29:51;95532.69;;;7.51;100.00
31771;BME280;18343;50.152;8.182;2024-03-29T00:32:37;95529.31;;;7.62;100.00
31771;BME280;18343;50.152;8.182;2024-03-29T00:35:22;95525.69;;;7.50;100.00
31771;BME280;18343;50.152;8.182;2024-03-29T00:38:06;95519.47;;;7.56;100.00
31771;BME280;18343;50.152;8.182;2024-03-29T00:40:50;95517.34;;;7.65;100.00
31771;BME280;18343;50.152;8.182;2024-03-29T00:43:35;95516.81;;;7.74;100.00
31771;BME280;18343;50.152;8.182;2024-03-29T00:46:20;95511.84;;;7.78;100.00
31771;BME280;18343;50.152;8.182;2024-03-29T00:49:05;95511.31;;;7.69;100.00
31771;BME280;18343;50.152;8.182;2024-03-29T00:51:50;95523.19;;;7.73;100.00
31771;BME280;18343;50.152;8.182;2024-03-29T00:54:34;95514.88;;;7.81;100.00
31771;BME280;18343;50.152;8.182;2024-03-29T00:57:19;95491.13;;;7.92;100.00
31771;BME280;18343;50.152;8.182;2024-03-29T01:00:04;95486.09;;;7.95;100.00
31771;BME280;18343;50.152;8.182;2024-03-29T01:02:49;95486.69;;;7.97;100.00
31771;BME280;18343;50.152;8.182;2024-03-29T01:05:35;95497.72;;;8.07;100.00
31771;BME280;18343;50.152;8.182;2024-03-29T01:08:20;95498.22;;;8.16;100.00
31771;BME280;18343;50.152;8.182;2024-03-29T01:11:04;95481.00;;;8.24;100.00
31771;BME280;18343;50.152;8.182;2024-03-29T01:13:49;95487.34;;;8.29;100.00
31771;BME280;18343;50.152;8.182;2024-03-29T01:16:33;95492.28;;;8.32;100.00
31771;BME280;18343;50.152;8.182;2024-03-29T01:19:18;95476.41;;;8.31;100.00
31771;BME280;18343;50.152;8.182;2024-03-29T01:22:04;95470.84;;;8.32;100.00
31771;BME280;18343;50.152;8.182;2024-03-29T01:24:48;95462.97;;;8.37;100.00
31771;BME280;18343;50.152;8.182;2024-03-29T01:27:33;95467.03;;;8.40;100.00
31771;BME280;18343;50.152;8.182;2024-03-29T01:30:17;95466.31;;;8.33;100.00
31771;BME280;18343;50.152;8.182;2024-03-29T01:33:02;95466.09;;;8.34;100.00
31771;BME280;18343;50.152;8.182;2024-03-29T01:35:47;95458.47;;;8.31;100.00
31771;BME280;18343;50.152;8.182;2024-03-29T01:38:33;95464.16;;;8.41;100.00
31771;BME280;18343;50.152;8.182;2024-03-29T01:41:18;95472.25;;;8.35;100.00
31771;BME280;18343;50.152;8.182;2024-03-29T01:44:03;95437.81;;;8.38;100.00
31771;BME280;18343;50.152;8.182;2024-03-29T01:46:48;95437.00;;;8.38;100.00
31771;BME280;18343;50.152;8.182;2024-03-29T01:49:33;95426.78;;;8.28;100.00
31771;BME280;18343;50.152;8.182;2024-03-29T01:52:19;95429.00;;;8.31;100.00
31771;BME280;18343;50.152;8.182;2024-03-29T01:55:07;95397.78;;;8.25;100.00
31771;BME280;18343;50.152;8.182;2024-03-29T01:57:51;95398.38;;;8.27;100.00
31771;BME280;18343;50.152;8.182;2024-03-29T02:00:37;95402.09;;;8.26;100.00
31771;BME280;18343;50.152;8.182;2024-03-29T02:03:23;95405.81;;;8.25;100.00
31771;BME280;18343;50.152;8.182;2024-03-29T02:06:08;95427.06;;;8.08;100.00
31771;BME280;18343;50.152;8.182;2024-03-29T02:08:53;95440.59;;;8.13;100.00
31771;BME280;18343;50.152;8.182;2024-03-29T02:11:39;95454.56;;;8.15;100.00
31771;BME280;18343;50.152;8.182;2024-03-29T02:14:23;95450.50;;;8.13;100.00
31771;BME280;18343;50.152;8.182;2024-03-29T02:17:08;95463.28;;;8.11;100.00
31771;BME280;18343;50.152;8.182;2024-03-29T02:19:53;95469.16;;;8.01;100.00
31771;BME280;18343;50.152;8.182;2024-03-29T02:22:44;95479.19;;;8.06;100.00
31771;BME280;18343;50.152;8.182;2024-03-29T02:25:32;95479.34;;;8.11;100.00
31771;BME280;18343;50.152;8.182;2024-03-29T02:28:16;95483.44;;;8.13;100.00
31771;BME280;18343;50.152;8.182;2024-03-29T02:31:01;95476.00;;;8.15;100.00
31771;BME280;18343;50.152;8.182;2024-03-29T02:33:46;95478.28;;;8.12;100.00
31771;BME280;18343;50.152;8.182;2024-03-29T02:36:30;95464.91;;;8.12;100.00
31771;BME280;18343;50.152;8.182;2024-03-29T02:39:14;95454.56;;;8.15;100.00
31771;BME280;18343;50.152;8.182;2024-03-29T02:42:00;95461.34;;;8.18;100.00
31771;BME280;18343;50.152;8.182;2024-03-29T02:44:46;95484.84;;;8.16;100.00
31771;BME280;18343;50.152;8.182;2024-03-29T02:47:31;95476.81;;;8.16;100.00
31771;BME280;18343;50.152;8.182;2024-03-29T02:50:16;95486.31;;;8.12;100.00
31771;BME280;18343;50.152;8.182;2024-03-29T02:53:01;95473.22;;;8.22;100.00
31771;BME280;18343;50.152;8.182;2024-03-29T02:55:45;95458.91;;;8.28;100.00
31771;BME280;18343;50.152;8.182;2024-03-29T02:58:31;95471.50;;;8.28;100.00
31771;BME280;18343;50.152;8.182;2024-03-29T03:01:16;95458.78;;;8.23;100.00
31771;BME280;18343;50.152;8.182;2024-03-29T03:04:01;95436.31;;;8.24;100.00
31771;BME280;18343;50.152;8.182;2024-03-29T03:06:45;95430.25;;;8.17;100.00
31771;BME280;18343;50.152;8.182;2024-03-29T03:09:30;95435.47;;;8.12;100.00
31771;BME280;18343;50.152;8.182;2024-03-29T03:12:14;95439.72;;;8.01;100.00
31771;BME280;18343;50.152;8.182;2024-03-29T03:15:00;95448.41;;;7.97;100.00
31771;BME280;18343;50.152;8.182;2024-03-29T03:17:44;95460.63;;;7.93;100.00
31771;BME280;18343;50.152;8.182;2024-03-29T03:20:29;95453.66;;;7.92;100.00
31771;BME280;18343;50.152;8.182;2024-03-29T03:23:13;95448.84;;;7.94;100.00
31771;BME280;18343;50.152;8.182;2024-03-29T03:25:59;95467.47;;;7.89;100.00
31771;BME280;18343;50.152;8.182;2024-03-29T03:28:44;95478.03;;;7.84;100.00
31771;BME280;18343;50.152;8.182;2024-03-29T03:31:30;95481.53;;;7.84;100.00
31771;BME280;18343;50.152;8.182;2024-03-29T03:34:14;95460.25;;;7.89;100.00
31771;BME280;18343;50.152;8.182;2024-03-29T03:36:59;95459.00;;;7.92;100.00
31771;BME280;18343;50.152;8.182;2024-03-29T03:39:43;95452.47;;;7.88;100.00
31771;BME280;18343;50.152;8.182;2024-03-29T03:42:28;95451.72;;;7.80;100.00
31771;BME280;18343;50.152;8.182;2024-03-29T03:45:12;95450.81;;;7.87;100.00
31771;BME280;18343;50.152;8.182;2024-03-29T03:47:59;95447.09;;;7.88;100.00
31771;BME280;18343;50.152;8.182;2024-03-29T03:50:43;95448.97;;;7.87;100.00
31771;BME280;18343;50.152;8.182;2024-03-29T03:53:28;95449.78;;;7.88;100.00
31771;BME280;18343;50.152;8.182;2024-03-29T03:56:12;95453.06;;;7.90;100.00
31771;BME280;18343;50.152;8.182;2024-03-29T03:58:57;95452.47;;;7.88;100.00
31771;BME280;18343;50.152;8.182;2024-03-29T04:01:41;95468.06;;;7.91;100.00
31771;BME280;18343;50.152;8.182;2024-03-29T04:04:27;95467.16;;;7.78;100.00
31771;BME280;18343;50.152;8.182;2024-03-29T04:07:12;95466.25;;;7.66;100.00
31771;BME280;18343;50.152;8.182;2024-03-29T04:09:56;95465.31;;;7.79;100.00
31771;BME280;18343;50.152;8.182;2024-03-29T04:12:41;95479.72;;;7.78;100.00
31771;BME280;18343;50.152;8.182;2024-03-29T04:15:25;95484.03;;;7.61;100.00
31771;BME280;18343;50.152;8.182;2024-03-29T04:18:10;95467.34;;;7.65;100.00
31771;BME280;18343;50.152;8.182;2024-03-29T04:20:58;95455.06;;;7.76;100.00
31771;BME280;18343;50.152;8.182;2024-03-29T04:23:42;95451.94;;;7.79;100.00
31771;BME280;18343;50.152;8.182;2024-03-29T04:26:27;95435.66;;;7.80;100.00
31771;BME280;18343;50.152;8.182;2024-03-29T04:29:11;95424.06;;;7.87;100.00
31771;BME280;18343;50.152;8.182;2024-03-29T04:31:56;95423.47;;;7.85;100.00
31771;BME280;18343;50.152;8.182;2024-03-29T04:34:40;95417.28;;;7.84;100.00
31771;BME280;18343;50.152;8.182;2024-03-29T04:37:26;95416.94;;;7.80;100.00
31771;BME280;18343;50.152;8.182;2024-03-29T04:40:11;95425.03;;;7.74;100.00
31771;BME280;18343;50.152;8.182;2024-03-29T04:42:58;95426.00;;;7.79;100.00
31771;BME280;18343;50.152;8.182;2024-03-29T04:45:43;95441.59;;;7.82;100.00
31771;BME280;18343;50.152;8.182;2024-03-29T04:48:28;95434.47;;;7.76;100.00
31771;BME280;18343;50.152;8.182;2024-03-29T04:51:13;95434.75;;;7.68;100.00
31771;BME280;18343;50.152;8.182;2024-03-29T04:53:59;95428.66;;;7.79;100.00
31771;BME280;18343;50.152;8.182;2024-03-29T04:56:43;95432.91;;;7.87;100.00
31771;BME280;18343;50.152;8.182;2024-03-29T04:59:28;95438.41;;;7.92;100.00
31771;BME280;18343;50.152;8.182;2024-03-29T05:02:12;95452.22;;;7.89;100.00
31771;BME280;18343;50.152;8.182;2024-03-29T05:04:57;95440.94;;;7.87;100.00
31771;BME280;18343;50.152;8.182;2024-03-29T05:07:42;95443.91;;;7.79;100.00
31771;BME280;18343;50.152;8.182;2024-03-29T05:10:27;95455.50;;;7.73;100.00
31771;BME280;18343;50.152;8.182;2024-03-29T05:13:12;95450.00;;;7.68;100.00
31771;BME280;18343;50.152;8.182;2024-03-29T05:15:57;95459.66;;;7.69;100.00
31771;BME280;18343;50.152;8.182;2024-03-29T05:18:41;95459.31;;;7.65;100.00
31771;BME280;18343;50.152;8.182;2024-03-29T05:21:26;95462.19;;;7.64;100.00
31771;BME280;18343;50.152;8.182;2024-03-29T05:24:10;95455.22;;;7.63;100.00
31771;BME280;18343;50.152;8.182;2024-03-29T05:26:56;95468.59;;;7.63;100.00
31771;BME280;18343;50.152;8.182;2024-03-29T05:29:40;95470.22;;;7.64;100.00
31771;BME280;18343;50.152;8.182;2024-03-29T05:32:25;95440.66;;;7.59;100.00
31771;BME280;18343;50.152;8.182;2024-03-29T05:35:10;95468.50;;;7.51;100.00
31771;BME280;18343;50.152;8.182;2024-03-29T05:37:55;95460.25;;;7.53;100.00
31771;BME280;18343;50.152;8.182;2024-03-29T05:40:39;95474.50;;;7.46;100.00
31771;BME280;18343;50.152;8.182;2024-03-29T05:43:25;95465.72;;;7.39;100.00
31771;BME280;18343;50.152;8.182;2024-03-29T05:46:09;95460.75;;;7.43;100.00
31771;BME280;18343;50.152;8.182;2024-03-29T05:48:54;95469.00;;;7.41;100.00
31771;BME280;18343;50.152;8.182;2024-03-29T05:51:38;95471.53;;;7.36;100.00
31771;BME280;18343;50.152;8.182;2024-03-29T05:54:23;95474.28;;;7.48;100.00
31771;BME280;18343;50.152;8.182;2024-03-29T05:57:08;95460.91;;;7.48;100.00
31771;BME280;18343;50.152;8.182;2024-03-29T05:59:53;95449.56;;;7.53;100.00
31771;BME280;18343;50.152;8.182;2024-03-29T06:02:38;95454.75;;;7.47;100.00
31771;BME280;18343;50.152;8.182;2024-03-29T06:05:22;95456.91;;;7.57;100.00
31771;BME280;18343;50.152;8.182;2024-03-29T06:08:08;95471.03;;;7.64;100.00
31771;BME280;18343;50.152;8.182;2024-03-29T06:10:53;95463.16;;;7.69;100.00
31771;BME280;18343;50.152;8.182;2024-03-29T06:13:38;95471.53;;;7.73;100.00
31771;BME280;18343;50.152;8.182;2024-03-29T06:16:27;95466.41;;;7.71;100.00
31771;BME280;18343;50.152;8.182;2024-03-29T06:19:12;95468.22;;;7.77;100.00
31771;BME280;18343;50.152;8.182;2024-03-29T06:21:57;95479.19;;;7.69;100.00
31771;BME280;18343;50.152;8.182;2024-03-29T06:24:44;95475.41;;;7.77;100.00
31771;BME280;18343;50.152;8.182;2024-03-29T06:27:32;95484.19;;;7.66;100.00
31771;BME280;18343;50.152;8.182;2024-03-29T06:30:17;95484.47;;;7.76;100.00
31771;BME280;18343;50.152;8.182;2024-03-29T06:33:05;95480.47;;;7.85;100.00
31771;BME280;18343;50.152;8.182;2024-03-29T06:35:53;95493.63;;;7.87;100.00
31771;BME280;18343;50.152;8.182;2024-03-29T06:38:39;95498.91;;;7.75;100.00
31771;BME280;18343;50.152;8.182;2024-03-29T06:41:24;95506.31;;;7.73;100.00
31771;BME280;18343;50.152;8.182;2024-03-29T06:44:08;95489.78;;;7.82;100.00
31771;BME280;18343;50.152;8.182;2024-03-29T06:46:53;95477.13;;;7.90;100.00
31771;BME280;18343;50.152;8.182;2024-03-29T06:49:39;95479.94;;;7.95;100.00
31771;BME280;18343;50.152;8.182;2024-03-29T06:52:25;95483.66;;;7.94;100.00
31771;BME280;18343;50.152;8.182;2024-03-29T06:55:09;95480.63;;;7.90;100.00
31771;BME280;18343;50.152;8.182;2024-03-29T06:57:54;95486.31;;;7.94;100.00
31771;BME280;18343;50.152;8.182;2024-03-29T07:00:39;95488.78;;;7.95;100.00
31771;BME280;18343;50.152;8.182;2024-03-29T07:03:23;95487.75;;;7.96;100.00
31771;BME280;18343;50.152;8.182;2024-03-29T07:06:12;95501.00;;;7.91;100.00
31771;BME280;18343;50.152;8.182;2024-03-29T07:08:57;95510.56;;;7.99;100.00
31771;BME280;18343;50.152;8.182;2024-03-29T07:11:41;95506.47;;;7.96;100.00
31771;BME280;18343;50.152;8.182;2024-03-29T07:14:26;95508.13;;;7.97;100.00
31771;BME280;18343;50.152;8.182;2024-03-29T07:17:11;95504.09;;;8.06;100.00
31771;BME280;18343;50.152;8.182;2024-03-29T07:19:56;95503.06;;;8.07;100.00
31771;BME280;18343;50.152;8.182;2024-03-29T07:22:48;95516.00;;;8.10;100.00
31771;BME280;18343;50.152;8.182;2024-03-29T07:25:38;95520.53;;;8.10;100.00
31771;BME280;18343;50.152;8.182;2024-03-29T07:28:22;95523.03;;;8.23;100.00
31771;BME280;18343;50.152;8.182;2024-03-29T07:31:14;95517.84;;;8.28;100.00
31771;BME280;18343;50.152;8.182;2024-03-29T07:33:59;95518.44;;;8.30;100.00
31771;BME280;18343;50.152;8.182;2024-03-29T07:36:43;95506.25;;;8.34;100.00
31771;BME280;18343;50.152;8.182;2024-03-29T07:39:30;95513.06;;;8.48;100.00
31771;BME280;18343;50.152;8.182;2024-03-29T07:42:14;95507.16;;;8.58;100.00
31771;BME280;18343;50.152;8.182;2024-03-29T07:44:59;95505.28;;;8.47;100.00
31771;BME280;18343;50.152;8.182;2024-03-29T07:47:43;95510.28;;;8.55;100.00
31771;BME280;18343;50.152;8.182;2024-03-29T07:50:29;95504.19;;;8.66;100.00
31771;BME280;18343;50.152;8.182;2024-03-29T07:53:14;95499.66;;;8.78;100.00
31771;BME280;18343;50.152;8.182;2024-03-29T07:56:00;95484.28;;;8.74;100.00
31771;BME280;18343;50.152;8.182;2024-03-29T07:58:44;95487.19;;;8.84;100.00
31771;BME280;18343;50.152;8.182;2024-03-29T08:01:29;95488.94;;;8.78;100.00
31771;BME280;18343;50.152;8.182;2024-03-29T08:04:13;95481.84;;;8.84;100.00
31771;BME280;18343;50.152;8.182;2024-03-29T08:07:04;95478.94;;;8.86;100.00
31771;BME280;18343;50.152;8.182;2024-03-29T08:09:49;95483.63;;;8.90;100.00
31771;BME280;18343;50.152;8.182;2024-03-29T08:12:35;95472.16;;;8.83;100.00
31771;BME280;18343;50.152;8.182;2024-03-29T08:15:20;95469.50;;;8.83;100.00
31771;BME280;18343;50.152;8.182;2024-03-29T08:18:06;95471.94;;;8.85;100.00
31771;BME280;18343;50.152;8.182;2024-03-29T08:20:51;95478.47;;;8.89;100.00
31771;BME280;18343;50.152;8.182;2024-03-29T08:23:36;95482.50;;;8.68;100.00
31771;BME280;18343;50.152;8.182;2024-03-29T08:26:20;95482.97;;;8.76;100.00
31771;BME280;18343;50.152;8.182;2024-03-29T08:29:06;95484.19;;;8.92;100.00
31771;BME280;18343;50.152;8.182;2024-03-29T08:31:51;95488.66;;;8.98;100.00
31771;BME280;18343;50.152;8.182;2024-03-29T08:34:37;95491.78;;;8.95;100.00
31771;BME280;18343;50.152;8.182;2024-03-29T08:37:22;95508.22;;;8.99;100.00
31771;BME280;18343;50.152;8.182;2024-03-29T08:40:20;95518.38;;;9.08;100.00
31771;BME280;18343;50.152;8.182;2024-03-29T08:43:05;95517.47;;;9.14;100.00
31771;BME280;18343;50.152;8.182;2024-03-29T08:45:53;95525.97;;;9.11;100.00
31771;BME280;18343;50.152;8.182;2024-03-29T08:48:41;95532.72;;;9.14;100.00
31771;BME280;18343;50.152;8.182;2024-03-29T08:51:25;95537.19;;;9.20;100.00
31771;BME280;18343;50.152;8.182;2024-03-29T08:54:10;95536.00;;;9.16;100.00
31771;BME280;18343;50.152;8.182;2024-03-29T08:56:55;95549.03;;;9.12;100.00
31771;BME280;18343;50.152;8.182;2024-03-29T08:59:40;95555.81;;;9.15;100.00
31771;BME280;18343;50.152;8.182;2024-03-29T09:02:27;95558.16;;;8.81;100.00
31771;BME280;18343;50.152;8.182;2024-03-29T09:05:15;95561.22;;;8.85;100.00
31771;BME280;18343;50.152;8.182;2024-03-29T09:08:00;95560.00;;;8.99;100.00
31771;BME280;18343;50.152;8.182;2024-03-29T09:10:45;95568.13;;;9.04;100.00
31771;BME280;18343;50.152;8.182;2024-03-29T09:13:34;95569.44;;;9.02;100.00
31771;BME280;18343;50.152;8.182;2024-03-29T09:16:19;95564.22;;;9.19;100.00
31771;BME280;18343;50.152;8.182;2024-03-29T09:19:05;95568.44;;;9.26;100.00
31771;BME280;18343;50.152;8.182;2024-03-29T09:21:52;95568.91;;;9.35;100.00
31771;BME280;18343;50.152;8.182;2024-03-29T09:24:37;95566.00;;;9.25;100.00
31771;BME280;18343;50.152;8.182;2024-03-29T09:27:21;95570.53;;;9.24;100.00
31771;BME280;18343;50.152;8.182;2024-03-29T09:30:10;95554.31;;;9.31;100.00
31771;BME280;18343;50.152;8.182;2024-03-29T09:32:55;95566.44;;;9.22;100.00
31771;BME280;18343;50.152;8.182;2024-03-29T09:35:42;95580.13;;;9.43;100.00
31771;BME280;18343;50.152;8.182;2024-03-29T09:38:28;95573.16;;;9.66;100.00
31771;BME280;18343;50.152;8.182;2024-03-29T09:41:16;95582.16;;;9.71;100.00
31771;BME280;18343;50.152;8.182;2024-03-29T09:44:03;95584.00;;;9.71;100.00
31771;BME280;18343;50.152;8.182;2024-03-29T09:46:50;95604.31;;;9.67;100.00
31771;BME280;18343;50.152;8.182;2024-03-29T09:49:43;95583.44;;;9.69;100.00
31771;BME280;18343;50.152;8.182;2024-03-29T09:52:32;95582.72;;;9.73;100.00
31771;BME280;18343;50.152;8.182;2024-03-29T09:55:18;95596.03;;;9.68;100.00
31771;BME280;18343;50.152;8.182;2024-03-29T09:58:06;95596.16;;;9.73;100.00
31771;BME280;18343;50.152;8.182;2024-03-29T10:00:51;95602.47;;;9.79;100.00
31771;BME280;18343;50.152;8.182;2024-03-29T10:03:39;95599.19;;;9.89;100.00
31771;BME280;18343;50.152;8.182;2024-03-29T10:06:24;95603.06;;;9.81;100.00
31771;BME280;18343;50.152;8.182;2024-03-29T10:09:14;95617.16;;;9.88;100.00
31771;BME280;18343;50.152;8.182;2024-03-29T10:11:59;95613.19;;;9.91;100.00
31771;BME280;18343;50.152;8.182;2024-03-29T10:14:45;95610.03;;;9.94;100.00
31771;BME280;18343;50.152;8.182;2024-03-29T10:17:30;95624.75;;;9.91;100.00
31771;BME280;18343;50.152;8.182;2024-03-29T10:20:17;95618.56;;;9.91;100.00
31771;BME280;18343;50.152;8.182;2024-03-29T10:23:03;95616.34;;;9.88;100.00
31771;BME280;18343;50.152;8.182;2024-03-29T10:25:49;95635.63;;;9.84;100.00
31771;BME280;18343;50.152;8.182;2024-03-29T10:28:36;95626.97;;;9.82;100.00
31771;BME280;18343;50.152;8.182;2024-03-29T10:31:20;95625.94;;;9.83;100.00
31771;BME280;18343;50.152;8.182;2024-03-29T10:34:05;95616.59;;;9.98;100.00
31771;BME280;18343;50.152;8.182;2024-03-29T10:36:50;95613.31;;;10.07;100.00
31771;BME280;18343;50.152;8.182;2024-03-29T10:39:35;95621.75;;;10.23;100.00
31771;BME280;18343;50.152;8.182;2024-03-29T10:42:21;95614.03;;;10.26;100.00
31771;BME280;18343;50.152;8.182;2024-03-29T10:45:14;95613.56;;;10.06;100.00
31771;BME280;18343;50.152;8.182;2024-03-29T10:47:59;95616.09;;;10.12;100.00
31771;BME280;18343;50.152;8.182;2024-03-29T10:50:45;95609.69;;;10.02;100.00
31771;BME280;18343;50.152;8.182;2024-03-29T10:53:31;95609.13;;;10.11;100.00
31771;BME280;18343;50.152;8.182;2024-03-29T10:56:16;95614.03;;;10.38;100.00
31771;BME280;18343;50.152;8.182;2024-03-29T10:59:10;95608.28;;;10.46;100.00
31771;BME280;18343;50.152;8.182;2024-03-29T11:01:59;95605.34;;;10.47;100.00
31771;BME280;18343;50.152;8.182;2024-03-29T11:04:50;95589.47;;;10.46;100.00
31771;BME280;18343;50.152;8.182;2024-03-29T11:07:38;95594.72;;;10.41;100.00
31771;BME280;18343;50.152;8.182;2024-03-29T11:10:27;95597.09;;;10.37;100.00
31771;BME280;18343;50.152;8.182;2024-03-29T11:13:23;95592.66;;;10.31;100.00
31771;BME280;18343;50.152;8.182;2024-03-29T11:16:14;95605.97;;;10.26;100.00
31771;BME280;18343;50.152;8.182;2024-03-29T11:18:59;95611.47;;;10.08;100.00
31771;BME280;18343;50.152;8.182;2024-03-29T11:21:45;95604.34;;;10.02;100.00
31771;BME280;18343;50.152;8.182;2024-03-29T11:24:30;95630.50;;;10.06;100.00
31771;BME280;18343;50.152;8.182;2024-03-29T11:27:16;95640.97;;;9.96;100.00
31771;BME280;18343;50.152;8.182;2024-03-29T11:30:05;95658.97;;;9.96;100.00
31771;BME280;18343;50.152;8.182;2024-03-29T11:32:52;95666.88;;;9.91;100.00
31771;BME280;18343;50.152;8.182;2024-03-29T11:35:40;95693.88;;;9.96;100.00
31771;BME280;18343;50.152;8.182;2024-03-29T11:38:35;95694.09;;;9.94;100.00
31771;BME280;18343;50.152;8.182;2024-03-29T11:41:21;95699.13;;;10.02;100.00
31771;BME280;18343;50.152;8.182;2024-03-29T11:44:08;95680.25;;;10.09;100.00
31771;BME280;18343;50.152;8.182;2024-03-29T11:46:54;95676.16;;;10.06;100.00
31771;BME280;18343;50.152;8.182;2024-03-29T11:49:43;95670.75;;;9.95;100.00
31771;BME280;18343;50.152;8.182;2024-03-29T11:52:28;95673.09;;;10.03;100.00
31771;BME280;18343;50.152;8.182;2024-03-29T11:55:14;95657.78;;;10.15;100.00
31771;BME280;18343;50.152;8.182;2024-03-29T11:57:59;95660.63;;;10.20;100.00
31771;BME280;18343;50.152;8.182;2024-03-29T12:00:44;95634.72;;;10.26;100.00
31771;BME280;18343;50.152;8.182;2024-03-29T12:03:40;95648.38;;;10.36;100.00
31771;BME280;18343;50.152;8.182;2024-03-29T12:06:28;95651.75;;;10.43;100.00
31771;BME280;18343;50.152;8.182;2024-03-29T12:09:14;95643.44;;;10.44;100.00
31771;BME280;18343;50.152;8.182;2024-03-29T12:11:59;95636.78;;;10.47;100.00
31771;BME280;18343;50.152;8.182;2024-03-29T12:14:44;95632.25;;;10.36;100.00
31771;BME280;18343;50.152;8.182;2024-03-29T12:17:29;95620.69;;;10.35;100.00
31771;BME280;18343;50.152;8.182;2024-03-29T12:20:14;95624.66;;;10.33;100.00
31771;BME280;18343;50.152;8.182;2024-03-29T12:23:00;95628.41;;;10.32;100.00
31771;BME280;18343;50.152;8.182;2024-03-29T12:25:47;95646.63;;;10.30;100.00
31771;BME280;18343;50.152;8.182;2024-03-29T12:28:32;95657.16;;;10.31;100.00
31771;BME280;18343;50.152;8.182;2024-03-29T12:31:17;95671.00;;;10.16;100.00
31771;BME280;18343;50.152;8.182;2024-03-29T12:34:02;95677.56;;;10.09;100.00
31771;BME280;18343;50.152;8.182;2024-03-29T12:36:48;95680.13;;;10.04;100.00
31771;BME280;18343;50.152;8.182;2024-03-29T12:39:34;95690.63;;;10.17;100.00
31771;BME280;18343;50.152;8.182;2024-03-29T12:42:19;95697.19;;;10.21;100.00
31771;BME280;18343;50.152;8.182;2024-03-29T12:45:04;95696.84;;;10.29;100.00
31771;BME280;18343;50.152;8.182;2024-03-29T12:47:51;95711.22;;;10.35;100.00
31771;BME280;18343;50.152;8.182;2024-03-29T12:50:35;95712.63;;;10.37;100.00
31771;BME280;18343;50.152;8.182;2024-03-29T12:53:20;95707.03;;;10.39;100.00
31771;BME280;18343;50.152;8.182;2024-03-29T12:56:07;95710.41;;;10.34;100.00
31771;BME280;18343;50.152;8.182;2024-03-29T12:58:52;95720.69;;;10.37;100.00
31771;BME280;18343;50.152;8.182;2024-03-29T13:01:38;95714.13;;;10.45;100.00
31771;BME280;18343;50.152;8.182;2024-03-29T13:04:23;95722.53;;;10.48;100.00
31771;BME280;18343;50.152;8.182;2024-03-29T13:07:08;95731.56;;;10.54;100.00
31771;BME280;18343;50.152;8.182;2024-03-29T13:09:53;95720.81;;;10.54;100.00
31771;BME280;18343;50.152;8.182;2024-03-29T13:12:40;95724.66;;;10.46;100.00
31771;BME280;18343;50.152;8.182;2024-03-29T13:15:27;95723.13;;;10.50;100.00
31771;BME280;18343;50.152;8.182;2024-03-29T13:18:16;95714.03;;;10.63;100.00
31771;BME280;18343;50.152;8.182;2024-03-29T13:21:01;95710.38;;;10.69;100.00
31771;BME280;18343;50.152;8.182;2024-03-29T13:23:45;95707.44;;;10.82;100.00
31771;BME280;18343;50.152;8.182;2024-03-29T13:26:30;95703.25;;;10.87;100.00
31771;BME280;18343;50.152;8.182;2024-03-29T13:29:18;95712.25;;;10.92;100.00
31771;BME280;18343;50.152;8.182;2024-03-29T13:32:03;95706.13;;;10.97;100.00
31771;BME280;18343;50.152;8.182;2024-03-29T13:34:51;95706.47;;;11.00;100.00
31771;BME280;18343;50.152;8.182;2024-03-29T13:37:37;95704.81;;;11.11;100.00
31771;BME280;18343;50.152;8.182;2024-03-29T13:40:23;95698.47;;;11.17;100.00
31771;BME280;18343;50.152;8.182;2024-03-29T13:43:09;95696.69;;;11.23;100.00
31771;BME280;18343;50.152;8.182;2024-03-29T13:45:57;95700.94;;;11.18;100.00
31771;BME280;18343;50.152;8.182;2024-03-29T13:48:41;95699.97;;;11.25;100.00
31771;BME280;18343;50.152;8.182;2024-03-29T13:51:26;95695.78;;;11.17;100.00
31771;BME280;18343;50.152;8.182;2024-03-29T13:54:15;95704.38;;;11.31;100.00
31771;BME280;18343;50.152;8.182;2024-03-29T13:57:02;95706.72;;;11.39;100.00
31771;BME280;18343;50.152;8.182;2024-03-29T13:59:48;95701.56;;;11.37;100.00
31771;BME280;18343;50.152;8.182;2024-03-29T14:02:35;95697.72;;;11.33;100.00
31771;BME280;18343;50.152;8.182;2024-03-29T14:05:19;95693.25;;;11.39;100.00
31771;BME280;18343;50.152;8.182;2024-03-29T14:08:05;95691.84;;;11.36;100.00
31771;BME280;18343;50.152;8.182;2024-03-29T14:10:50;95687.53;;;11.35;100.00
31771;BME280;18343;50.152;8.182;2024-03-29T14:13:35;95695.72;;;11.40;100.00
31771;BME280;18343;50.152;8.182;2024-03-29T14:16:20;95699.91;;;11.48;100.00
31771;BME280;18343;50.152;8.182;2024-03-29T14:19:07;95709.69;;;11.54;100.00
31771;BME280;18343;50.152;8.182;2024-03-29T14:21:54;95710.50;;;11.54;100.00
31771;BME280;18343;50.152;8.182;2024-03-29T14:24:39;95708.03;;;11.53;100.00
31771;BME280;18343;50.152;8.182;2024-03-29T14:27:24;95710.59;;;11.60;100.00
31771;BME280;18343;50.152;8.182;2024-03-29T14:30:12;95713.19;;;11.54;100.00
31771;BME280;18343;50.152;8.182;2024-03-29T14:32:56;95701.50;;;11.49;100.00
31771;BME280;18343;50.152;8.182;2024-03-29T14:35:43;95714.66;;;11.45;100.00